Tiempo atmosférico en la estación meteorológica de Menorca Aeropuerto, Illes Balears (91 m.)



Fecha
DESCASC
Temp. máxima en grados centígrados (hora)
DESCASC
Temp. mínima en grados centígrados (hora)
DESCASC
Temp. media en grados centígrados
DESCASC
Racha de viento máxima en m/sg (hora)
DESCASC
Velocidad máxima media en intervalos de 10 minutos(hora)
DESCASC
Precipitaciones diarias en mm
DESCASC
Precipitaciones de 00:00 a 06:00 en mm
DESCASC
Precipitaciones de 06:00 a 12:00 en mm
DESCASC
Precipitaciones de 12:00 a 18:00 en mm
DESCASC
Precipitaciones de 18:00 a 24:00 en mm
DESCASC

Gráficas

Temp. máximas Temp. mínimas Temp. medias Precipitaciones Rachas de viento máximas Velocidades máximas media en intervalos de 10 minutos

Datos horarios

Fecha y hora oficial Temperatura (ºC) Velocidad del viento (km/h) Dirección del viento Racha (km/h) Dirección de racha Precipitación (mm) Presión (hPa) Tendencia (hPa) Humedad (%)
2019-12-11 23:00:00 9.7 27 Norte 41 Norte 0 1006.9 1 79
2019-12-11 22:00:00 10.3 33 Norte 58 Norte 0 1006.9 1.9 81
2019-12-11 21:00:00 10.8 42 Norte 61 Norte 0.3 1006.6 2 86
2019-12-11 20:00:00 12.2 22 Norte 35 Norte 1 1005.9 1.7 88
2019-12-11 19:00:00 13.4 18 Oeste 35 Oeste 0 1005 0.9 74
2019-12-11 18:00:00 13.5 14 Oeste 26 Oeste 0 1004.6 0.1 77
2019-12-11 17:00:00 14.2 13 Oeste 28 Oeste 0 1004.2 -1.2 87
2019-12-11 16:00:00 14.7 15 Sudoeste 26 Sudoeste 0 1004.1 -2.6 81
2019-12-11 15:00:00 15.1 17 Sudoeste 28 Sudoeste 0 1004.5 -3.3 74
2019-12-11 14:00:00 15.5 16 Sudoeste 26 Sudoeste 0 1005.4 -3.2 71
2019-12-11 13:00:00 15.6 18 Sudoeste 28 Sudoeste 0 1006.7 -2.3 68
2019-12-11 12:00:00 15.2 15 Sudoeste 24 Sudoeste 0 1007.8 -1.4 70
2019-12-11 11:00:00 14.7 15 Sudoeste 26 Oeste 0 1008.6 -0.5 67
2019-12-11 10:00:00 11.8 12 Sudoeste 18 Sudoeste 0 1009 -0.5 82
2019-12-11 09:00:00 9 5 Sudoeste 9 Oeste 0 1009.2 -0.8 91
2019-12-11 08:00:00 4 7 Oeste 8 Oeste 0 1009.1 -1.3 90
2019-12-11 07:00:00 5.5 4 Noroeste 9 Noroeste 0 1009.5 -1.4 85
2019-12-11 06:00:00 7.2 8 Noroeste 17 Noroeste 0 1010 -1.4 82
2019-12-11 05:00:00 7 14 Noroeste 17 Noroeste 0 1010.4 -1.3 78
2019-12-11 04:00:00 6.2 12 Norte 17 Noroeste 0 1010.9 -1.2 76
2019-12-11 03:00:00 6.8 14 Noroeste 17 Noroeste 0 1011.4 -0.7 72
2019-12-11 02:00:00 6.5 11 Noroeste 15 Noroeste 0 1011.7 -0.5 74
2019-12-11 01:00:00 5.9 10 Noroeste 15 Noroeste 0 1012.1 -0.3 80
2019-12-11 00:00:00 5.6 10 Noroeste 13 Noroeste 0 1012.1 -0.2 80
2019-12-10 23:00:00 5.3 8 Noroeste 11 Norte 0 1012.2 -0.2 82
2019-12-10 22:00:00 7.1 4 Oeste 17 Norte 0 1012.4 0.4 74
2019-12-10 21:00:00 8.5 12 Norte 21 Norte 0 1012.3 0.5 72
2019-12-10 20:00:00 9.5 12 Norte 24 Noroeste 0 1012.4 0.6 64
2019-12-10 19:00:00 10.5 11 Norte 30 Norte 0 1012 0.8 59
2019-12-10 18:00:00 11.6 19 Norte 48 Norte 0 1011.8 0.6 50
2019-12-10 17:00:00 12.4 30 Norte 65 Norte 0 1011.8 0.4 46
2019-12-10 16:00:00 12.8 42 Norte 67 Norte 0 1011.2 -0.7 41
2019-12-10 15:00:00 13.1 39 Norte 65 Norte 0 1011.2 -1.4 44
2019-12-10 14:00:00 13 46 Norte 68 Norte 0 1011.4 -1.3 43
2019-12-10 13:00:00 12.8 47 Norte 74 Norte 0 1011.9 -0.2 47
2019-12-10 12:00:00 12.4 50 Norte 76 Norte 0 1012.6 1 52
2019-12-10 11:00:00 12.2 45 Norte 82 Norte 0 1012.7 1.3 56
2019-12-10 10:00:00 11.8 48 Norte 78 Norte 0 1012.1 0.8 54
2019-12-10 09:00:00 11.3 48 Norte 78 Norte 0 1011.6 0.6 54
2019-12-10 08:00:00 10.8 41 Norte 76 Norte 0 1011.4 0.2 49
2019-12-10 07:00:00 11.1 41 Norte 76 Norte 0 1011.3 0 54
2019-12-10 06:00:00 11.3 39 Norte 71 Norte 0 1011 0.1 62
2019-12-10 05:00:00 11.8 39 Norte 65 Norte 0 1011.2 0 62
2019-12-10 04:00:00 11.1 32 Norte 67 Norte 0 1011.3 -0.4 65
2019-12-10 03:00:00 11.7 30 Norte 55 Norte 0 1010.9 -0.9 59
2019-12-10 02:00:00 12.3 29 Norte 48 Norte 0 1011.2 -0.3 56
2019-12-10 01:00:00 11.3 24 Norte 39 Norte 0 1011.7 0.5 74
2019-12-10 00:00:00 10.4 12 Norte 26 Norte 0 1011.8 0.9 82
2019-12-09 23:00:00 9.3 15 Norte 21 Norte 0 1011.5 0.8 92
2019-12-09 22:00:00 8.8 11 Norte 17 Norte 0 1011.2 1.1 90
2019-12-09 21:00:00 9.4 13 Norte 17 Norte 0 1010.9 1.4 88
2019-12-09 20:00:00 8.4 12 Norte 15 Norte 0 1010.7 1.5 90
2019-12-09 19:00:00 9 10 Norte 18 Norte 0 1010.1 0.9 88
2019-12-09 18:00:00 10.8 8 Norte 30 Norte 0 1009.5 0.5 81
2019-12-09 17:00:00 12.8 16 Noroeste 33 Norte 0 1009.2 0.1 71
2019-12-09 16:00:00 14.2 17 Noroeste 39 Noroeste 0 1009.2 -0.6 61
2019-12-09 15:00:00 14.9 19 Noroeste 42 Oeste 0 1009 -1.1 58
2019-12-09 14:00:00 14.4 18 Noroeste 39 Oeste 0 1009.1 -1.7 63
2019-12-09 13:00:00 16 24 Oeste 46 Oeste 0 1009.8 -0.7 57
2019-12-09 12:00:00 15.4 30 Oeste 48 Oeste 0 1010.1 0.1 67
2019-12-09 11:00:00 15.2 26 Oeste 42 Oeste 0 1010.8 0.8 71
2019-12-09 10:00:00 14.4 9 Noroeste 15 Oeste 0 1010.5 1 88
2019-12-09 09:00:00 11.8 9 Norte 13 Noroeste 0 1010 0.1 95
2019-12-09 08:00:00 11.1 7 Noroeste 13 Noroeste 0 1010 0.5 97
2019-12-09 07:00:00 10.8 8 Oeste 13 Noroeste 0 1009.5 0 97
2019-12-09 06:00:00 11.5 9 Noroeste 15 Noroeste 0 1009.9 -0.2 96
2019-12-09 05:00:00 12.2 14 Oeste 22 Noroeste 0 1009.5 -0.8 97
2019-12-09 04:00:00 11.6 8 Oeste 17 Oeste 0 1009.5 -1.5 96
2019-12-09 03:00:00 11.3 10 Oeste 13 Oeste 0 1010.1 -0.7 97
2019-12-09 02:00:00 11.5 8 Oeste 13 Oeste 0 1010.3 -0.6 97
2019-12-09 01:00:00 10.8 8 Norte 11 Norte 0 1011 -0.2 97
2019-12-09 00:00:00 11 8 Sudoeste 15 Oeste 0 1010.8 -0.4 97
2019-12-08 23:00:00 10.2 11 Oeste 15 Oeste 0 1010.9 -0.3 97
2019-12-08 22:00:00 8.8 5 Oeste 9 Oeste 0 1011.2 0.3 95
2019-12-08 21:00:00 10.2 8 Noroeste 13 Norte 0 1011.2 0.4 94
2019-12-08 20:00:00 10.6 12 Norte 15 Noroeste 0 1011.2 0.4 94
2019-12-08 19:00:00 11.8 5 Noroeste 15 Oeste 0 1010.9 -0.2 91
2019-12-08 18:00:00 13.1 11 Sudoeste 17 Sudoeste 0 1010.8 -0.4 85
2019-12-08 17:00:00 14.8 12 Sudoeste 22 Sudoeste 0 1010.8 -0.8 79
2019-12-08 16:00:00 15.2 12 Sudoeste 26 Oeste 0 1011.1 -1.3 81
2019-12-08 15:00:00 15.6 16 Oeste 26 Oeste 0 1011.2 -1.8 75
2019-12-08 14:00:00 15.4 14 Oeste 24 Oeste 0 1011.6 -1.8 76
2019-12-08 13:00:00 15.8 12 Oeste 22 Sudoeste 0 1012.4 -0.9 74
2019-12-08 12:00:00 16.3 13 Oeste 18 Oeste 0 1013 0 74
2019-12-08 11:00:00 15.3 11 Oeste 18 Oeste 0 1013.4 0.7 81
2019-12-08 10:00:00 14.1 8 Oeste 13 Oeste 0 1013.3 0.7 94
2019-12-08 09:00:00 10.7 8 Noroeste 11 Noroeste 0 1013 0.8 99
2019-12-08 08:00:00 6 8 Oeste -- -- 0 1012.7 0.3 98
2019-12-08 07:00:00 7.8 8 Noroeste 13 Noroeste 0 1012.6 0.1 98
2019-12-08 06:00:00 5.8 6 Noroeste -- -- 0 1012.2 -0.6 98
2019-12-08 05:00:00 6.8 9 Noroeste 11 Noroeste 0 1012.4 -0.6 98
2019-12-08 04:00:00 8.4 9 Noroeste 11 Noroeste 0 1012.5 -0.8 98
2019-12-08 03:00:00 6.7 8 Noroeste 11 Noroeste 0 1012.8 -0.9 98
2019-12-08 02:00:00 7.5 9 Noroeste 11 Noroeste 0 1013 -0.6 98
2019-12-08 01:00:00 -- 8 Noroeste 15 Norte 0 1013.3 0.1 --
2019-12-08 00:00:00 9.6 11 Noroeste 13 Noroeste 0 1013.7 0.7 98
2019-12-07 23:00:00 7.6 9 Noroeste 9 Noroeste 0 1013.6 0.7 97
2019-12-07 22:00:00 8.4 6 Noroeste 9 Norte 0 1013.2 0.5 96
2019-12-07 21:00:00 9.4 3 Norte -- -- 0 1013 0.7 96
2019-12-07 20:00:00 8.8 -- -- -- -- 0 1012.9 0.6 95
2019-12-07 19:00:00 10.1 5 Nordeste -- -- 0 1012.7 0.6 92
2019-12-07 18:00:00 12.1 8 Este -- -- 0 1012.3 0.4 91
2019-12-07 17:00:00 13.6 5 Sudeste 13 Sudeste 0 1012.3 0.2 85
2019-12-07 16:00:00 15.6 8 Sudeste 18 Sudeste 0 1012.1 -1 77
2019-12-07 15:00:00 15.7 11 Sudeste 13 Este 0 1011.9 -1.7 77
2019-12-07 14:00:00 17.2 3 Nordeste 15 Norte 0 1012.1 -1.9 69
2019-12-07 13:00:00 17.9 3 Noroeste 13 Noroeste 0 1013.1 -0.3 67
2019-12-07 12:00:00 14.7 5 Noroeste 13 Noroeste 0 1013.6 0.6 83
2019-12-07 11:00:00 14.5 6 Noroeste 11 Noroeste 0 1014 1.5 87
2019-12-07 10:00:00 9.9 4 Noroeste 8 Noroeste 0 1013.4 1 98
2019-12-07 09:00:00 6.7 3 Oeste -- -- 0 1013 0.4 98
2019-12-07 08:00:00 6.6 0 Calma -- -- 0 1012.5 -0.4 97
2019-12-07 07:00:00 7.8 3 Noroeste 13 Norte 0 1012.4 -0.5 97
2019-12-07 06:00:00 9.2 10 Norte -- -- 0 1012.6 -0.2 97
2019-12-07 05:00:00 8.3 8 Noroeste -- -- 0 1012.9 0.6 97
2019-12-07 04:00:00 9.2 12 Norte 13 Norte 0 1012.9 0.4 98
2019-12-07 03:00:00 9 9 Norte 13 Norte 0 1012.8 -0.2 97
2019-12-07 02:00:00 8.2 8 Noroeste 9 Noroeste 0 1012.3 -0.9 97
2019-12-07 01:00:00 8.1 8 Noroeste 11 Norte 0 1012.5 -0.5 97
2019-12-07 00:00:00 8 3 Noroeste 9 Norte 0 1013 0 96
2019-12-06 23:00:00 8.7 4 Norte 9 Norte 0 1013.2 0.3 96
2019-12-06 22:00:00 9.5 9 Norte 11 Norte 0 1013 0.7 96
2019-12-06 21:00:00 10.3 11 Norte 15 Norte 0 1013 1.1 95
2019-12-06 20:00:00 11.2 12 Norte 15 Norte 0 1012.9 1.3 95
2019-12-06 19:00:00 10.7 11 Norte -- -- 0 1012.3 0.6 96
2019-12-06 18:00:00 11.9 8 Norte 13 Nordeste 0 1011.9 0.2 91
2019-12-06 17:00:00 13.8 10 Norte 17 Norte 0 1011.6 -0.4 87
2019-12-06 16:00:00 16.3 13 Norte 17 Norte 0 1011.7 -0.7 77
2019-12-06 15:00:00 17.8 12 Oeste 21 Sudoeste 0 1011.7 -1.3 70
2019-12-06 14:00:00 17.8 11 Oeste 18 Oeste 0 1012 -1.5 74
2019-12-06 13:00:00 17.3 10 Sudoeste 15 Oeste 0 1012.4 -0.7 75
2019-12-06 12:00:00 16.3 9 Oeste 15 Noroeste 0 1013 0.6 78
2019-12-06 11:00:00 14.6 6 Oeste 11 Noroeste 0 1013.5 1.5 95
2019-12-06 10:00:00 12.3 5 Noroeste 8 Noroeste 0 1013.1 1.3 98
2019-12-06 09:00:00 10.5 3 Noroeste 9 Norte 0 1012.4 1.1 98
2019-12-06 08:00:00 10.1 7 Noroeste 11 Noroeste 0 1012 0.9 98
2019-12-06 07:00:00 9 4 Noroeste 13 Noroeste 0 1011.8 0.7 98
2019-12-06 06:00:00 8.2 9 Noroeste 11 Noroeste 0 1011.3 0.2 98
2019-12-06 05:00:00 9.8 9 Noroeste 13 Noroeste 0 1011.1 0.1 98
2019-12-06 04:00:00 9.5 5 Noroeste 11 Noroeste 0 1011.1 0.2 98
2019-12-06 03:00:00 8.5 7 Oeste 9 Noroeste 0 1011.1 0 98
2019-12-06 02:00:00 8.8 7 Noroeste 13 Norte 0 1011 0.2 98
2019-12-06 01:00:00 8.8 6 Noroeste 9 Noroeste 0 1010.9 0.4 98
2019-12-06 00:00:00 -- -- -- -- -- 0 1011.1 0.8 --
2019-12-05 23:00:00 8.8 6 Noroeste -- -- 0 1010.8 0.8 97
2019-12-05 22:00:00 9.5 6 Noroeste -- -- 0 1010.5 1 96
2019-12-05 21:00:00 9.9 7 Noroeste 11 Noroeste 0 1010.3 1.8 95
2019-12-05 20:00:00 10.7 8 Noroeste 11 Noroeste 0 1010 1.9 95
2019-12-05 19:00:00 10.6 4 Sudoeste 9 Sudoeste 0 1009.5 1.8 93
2019-12-05 18:00:00 12.4 7 Oeste 9 Sudoeste 0 1008.5 1.3 90
2019-12-05 17:00:00 15.4 3 Oeste 15 Oeste 0 1008.1 1.4 79
2019-12-05 16:00:00 16.6 10 Sudoeste 15 Sudoeste 0 1007.7 1.3 75
2019-12-05 15:00:00 15.9 10 Sudoeste 18 Sudoeste 0 1007.2 0.6 76
2019-12-05 14:00:00 17.7 9 Sudoeste 17 Oeste 0 1006.7 0.4 64
2019-12-05 13:00:00 16.9 8 Sudoeste 17 Sudoeste 0 1006.4 0.9 74
2019-12-05 12:00:00 17.6 9 Sur 15 Sur 0 1006.6 2.2 72
2019-12-05 11:00:00 17.1 4 Sudoeste 11 Sur 0 1006.3 2.9 75
2019-12-05 10:00:00 15.3 0 Calma 5 Este 0 1005.5 3 90
2019-12-05 09:00:00 11.4 0 Calma 8 Este 0 1004.4 2.9 98
2019-12-05 08:00:00 8.6 7 Norte 15 Norte 0 1003.4 2.2 97
2019-12-05 07:00:00 9.7 14 Norte 17 Norte 0 1002.5 1.8 97
2019-12-05 06:00:00 10.4 13 Norte 17 Norte 0 1001.5 1.2 98
2019-12-05 05:00:00 11.4 9 Noroeste 13 Noroeste 0 1001.2 1.6 98
2019-12-05 04:00:00 10.8 7 Norte 11 Norte 0 1000.7 1.3 98
2019-12-05 03:00:00 9.6 6 Noroeste -- -- 0 1000.3 1.2 98
2019-12-05 02:00:00 9.1 5 Sudoeste -- -- 0 999.6 1.2 98
2019-12-05 01:00:00 9.1 0 Calma 8 Este 0 999.4 1.5 97
2019-12-05 00:00:00 9.7 5 Nordeste 11 Este 0 999.1 1.5 96
2019-12-04 23:00:00 12.7 8 Este 9 Este 0 998.4 1.5 97
2019-12-04 22:00:00 9.7 3 Este 9 Nordeste 0 997.9 1.8 96
2019-12-04 21:00:00 11.2 9 Este 15 Este 0 997.6 2 95
2019-12-04 20:00:00 12.3 13 Este 17 Este 0 996.9 1.4 94
2019-12-04 19:00:00 12.1 13 Este -- -- 0 996.1 1.1 96
2019-12-04 18:00:00 11.7 13 Nordeste 21 Nordeste 0 995.6 0.6 95
2019-12-04 17:00:00 12.2 14 Nordeste 26 Nordeste 0.1 995.5 0.1 92
2019-12-04 16:00:00 11.3 15 Nordeste 24 Nordeste 1.3 995 0 96
2019-12-04 15:00:00 11.1 9 Norte 15 Sur 3.3 995 -1.2 97
2019-12-04 14:00:00 10.6 4 Sur 17 Nordeste 10.8 995.4 -0.5 96
2019-12-04 13:00:00 10.8 11 Sudeste 32 Este 9.9 995 -1.5 94
2019-12-04 12:00:00 11.9 27 Nordeste 45 Este 4.9 996.2 0.7 96
2019-12-04 11:00:00 12.2 18 Nordeste 32 Este 3 995.9 -0.1 94
2019-12-04 10:00:00 13.5 20 Este 41 Este 1.5 996.5 0.7 92
2019-12-04 09:00:00 14.6 28 Este 54 Este 0.1 995.5 -0.8 85
2019-12-04 08:00:00 15.8 24 Este 59 Norte 0 996 -0.9 89
2019-12-04 07:00:00 16 39 Este 63 Este 0 995.8 -1.5 89
2019-12-04 06:00:00 15.7 38 Este 58 Este 0 996.3 -2.2 88
2019-12-04 05:00:00 15.9 37 Este 59 Norte 0 996.9 -2.1 86
2019-12-04 04:00:00 15.6 44 Nordeste 59 Este 0.1 997.3 -2.3 91
2019-12-04 03:00:00 16.1 35 Nordeste 61 Este 0 998.5 -2 86
2019-12-04 02:00:00 16 35 Este 61 Este 0 999 -2.1 91
2019-12-04 01:00:00 15.8 36 Este 54 Este 0 999.6 -1.8 92
2019-12-04 00:00:00 15.7 36 Nordeste 52 Este 0 1000.5 -1.2 92
2019-12-03 23:00:00 15.7 36 Nordeste 55 Este 0 1001.1 -0.9 91
2019-12-03 22:00:00 15.5 34 Este 48 Este 0 1001.4 -0.2 87
2019-12-03 21:00:00 15.3 36 Este 50 Este 0 1001.7 0 90
2019-12-03 20:00:00 15.2 30 Este 46 Nordeste 0 1002 -0.3 90
2019-12-03 19:00:00 15 27 Nordeste 48 Nordeste 0 1001.6 -1 89
2019-12-03 18:00:00 14.9 29 Nordeste 42 Nordeste 0 1001.7 -1.4 88
2019-12-03 17:00:00 14.7 26 Nordeste 41 Nordeste 0 1002.3 -1.4 88
2019-12-03 16:00:00 14.9 27 Nordeste 35 Nordeste 0 1002.6 -1.7 80
2019-12-03 15:00:00 14.5 27 Nordeste 37 Nordeste 0 1003.1 -2.4 81
2019-12-03 14:00:00 14.5 24 Nordeste 37 Nordeste 0 1003.7 -2.1 80
2019-12-03 13:00:00 15.4 26 Nordeste 39 Nordeste 0 1004.3 -1.6 73
2019-12-03 12:00:00 13.8 25 Nordeste 46 Nordeste 0 1005.5 -0.2 77
2019-12-03 11:00:00 13.8 30 Nordeste 45 Nordeste 0 1005.8 0.2 74
2019-12-03 10:00:00 12 30 Nordeste 46 Nordeste 0 1005.9 0.4 81
2019-12-03 09:00:00 11.3 34 Nordeste 50 Norte 0 1005.7 0.4 79
2019-12-03 08:00:00 10.9 39 Norte 54 Nordeste 0 1005.6 0.4 79
2019-12-03 07:00:00 10.8 41 Norte 59 Norte 0 1005.5 -0.4 77
2019-12-03 06:00:00 10.7 36 Norte 55 Norte 0 1005.3 -0.8 78
2019-12-03 05:00:00 10.9 42 Nordeste 61 Norte 0 1005.2 -0.9 80
2019-12-03 04:00:00 11.8 39 Norte 55 Norte 0 1005.9 -0.4 76
2019-12-03 03:00:00 11.8 37 Nordeste 54 Nordeste 0 1006.1 -0.6 74
2019-12-03 02:00:00 11.9 37 Nordeste 50 Nordeste 0 1006.1 -0.5 74
2019-12-03 01:00:00 12.3 35 Nordeste 46 Norte 0 1006.3 -0.1 75
2019-12-03 00:00:00 12.6 34 Nordeste 48 Nordeste 0 1006.7 0.4 78
2019-12-02 23:00:00 12.8 35 Nordeste 48 Nordeste 0 1006.6 0.5 77
2019-12-02 22:00:00 12.5 36 Nordeste 50 Norte 0 1006.4 0.8 74
2019-12-02 21:00:00 12.5 34 Nordeste 48 Nordeste 0 1006.3 1 76
2019-12-02 20:00:00 12.6 35 Nordeste 48 Nordeste 0 1006.1 1 79
2019-12-02 19:00:00 12.6 35 Nordeste 45 Nordeste 0 1005.6 0.9 80
2019-12-02 18:00:00 12.6 32 Nordeste 41 Norte 0 1005.3 0.6 80
2019-12-02 17:00:00 12.8 30 Nordeste 46 Nordeste 0 1005.1 0.2 78
2019-12-02 16:00:00 13.8 34 Nordeste 50 Norte 0 1004.7 -0.5 76
2019-12-02 15:00:00 14.3 37 Norte 50 Norte 0 1004.7 -0.4 74
2019-12-02 14:00:00 14.1 39 Norte 52 Nordeste 0 1004.9 -0.3 77
2019-12-02 13:00:00 14.6 40 Nordeste 54 Norte 0 1005.2 0.5 73
2019-12-02 12:00:00 15.2 39 Norte 55 Norte 0 1005.1 1 72
2019-12-02 11:00:00 14.9 39 Norte 50 Nordeste 0 1005.2 1.7 76
2019-12-02 10:00:00 14.4 32 Nordeste 45 Nordeste 0 1004.7 1.6 83
2019-12-02 09:00:00 13.2 28 Nordeste 39 Norte 0 1004.1 1.5 89
2019-12-02 08:00:00 13.1 24 Nordeste 33 Nordeste 0.1 1003.5 1.2 92
2019-12-02 07:00:00 13.3 22 Nordeste 33 Nordeste 0.6 1003.1 1.3 92
2019-12-02 06:00:00 13.7 21 Norte 30 Nordeste 0 1002.6 0.5 93
2019-12-02 05:00:00 14 17 Nordeste 26 Nordeste 0 1002.3 0.1 94
2019-12-02 04:00:00 14.1 20 Nordeste 28 Nordeste 0 1001.8 -0.7 96
2019-12-02 03:00:00 13.5 13 Nordeste 18 Norte 1 1002.1 -0.4 96
2019-12-02 02:00:00 13.2 13 Norte 17 Norte 0 1002.2 -0.2 95
2019-12-02 01:00:00 12.8 13 Norte -- -- 0 1002.5 0.1 97
2019-12-02 00:00:00 -- 8 Norte 13 Nordeste 0 1002.5 0.1 --
2019-12-01 23:00:00 12.9 9 Nordeste 15 Norte 0 1002.4 0.5 96
2019-12-01 22:00:00 12.6 8 Nordeste -- -- 0 1002.4 0.6 94
2019-12-01 21:00:00 13.1 10 Norte 15 Nordeste 0 1002.4 0.9 93
2019-12-01 20:00:00 13.2 13 Norte 15 Norte 0 1001.9 0.5 93
2019-12-01 19:00:00 14.8 9 Norte 11 Norte 0 1001.8 0.4 90
2019-12-01 18:00:00 15.5 7 Sudoeste 18 Sudoeste 0 1001.5 0.3 90
2019-12-01 17:00:00 15.8 13 Sudoeste 24 Sudoeste 0 1001.4 0.1 89
2019-12-01 16:00:00 17.4 14 Sudoeste 28 Sudoeste 0 1001.4 -0.1 80
2019-12-01 15:00:00 17.4 18 Sudoeste 32 Sudoeste 0 1001.2 -1 80
2019-12-01 14:00:00 17.2 22 Sudoeste 30 Sudoeste 0 1001.3 -1.6 81
2019-12-01 13:00:00 17.4 21 Sudoeste 28 Sudoeste 0 1001.5 -1.3 80
2019-12-01 12:00:00 18.2 18 Sudoeste 32 Oeste 0 1002.2 -0.4 77
2019-12-01 11:00:00 17.3 22 Sudoeste 33 Sudoeste 0 1002.9 0.4 78
2019-12-01 10:00:00 16.1 20 Sudoeste 35 Sudoeste 0 1002.8 0.2 82
2019-12-01 09:00:00 16 19 Sudoeste 33 Sur 0 1002.6 -0.2 84
2019-12-01 08:00:00 15.1 22 Sur 33 Sur 0 1002.5 -0.8 89
2019-12-01 07:00:00 15.4 25 Sur 35 Sur 0 1002.6 -1 89
2019-12-01 06:00:00 15 22 Sur 33 Sur 0 1002.8 -1.5 92
2019-12-01 05:00:00 14.8 22 Sur 35 Sudoeste 0 1003.3 -1.3 93
2019-12-01 04:00:00 14.7 21 Sur 33 Sur 0 1003.6 -1.5 93
2019-12-01 03:00:00 14.8 20 Sur 33 Sur 0 1004.3 -1.5 93
2019-12-01 02:00:00 14.8 24 Sur 33 Sur 0 1004.6 -1.5 94
2019-12-01 01:00:00 14.9 24 Sur 35 Sur 0 1005.1 -1.5 93
2019-12-01 00:00:00 15.1 21 Sur 32 Sudoeste 0 1005.8 -1.1 94
2019-11-30 23:00:00 15 22 Sur 35 Sur 0 1006.1 -0.8 92
2019-11-30 22:00:00 15.2 24 Sur 33 Sur 0 1006.6 -0.5 90
2019-11-30 21:00:00 15.5 20 Sur 30 Sur 0 1006.9 -0.3 89
2019-11-30 20:00:00 15.2 17 Sudoeste 28 Sur 0 1006.9 -0.5 89
2019-11-30 19:00:00 15.2 17 Sudoeste 28 Sudoeste 0 1007.1 -0.6 91
2019-11-30 18:00:00 15 20 Sudoeste 32 Sudoeste 0 1007.2 -0.9 90
2019-11-30 17:00:00 15.7 19 Sudoeste 30 Sudoeste 0 1007.4 -1.4 86
2019-11-30 16:00:00 16 17 Sudoeste 32 Sudoeste 0 1007.7 -1.7 85
2019-11-30 15:00:00 16.5 16 Sudoeste 28 Sudoeste 0 1008.1 -2.1 82
2019-11-30 14:00:00 16.4 18 Sudoeste 28 Sudoeste 0 1008.8 -1.9 82
2019-11-30 13:00:00 16.6 17 Sudoeste 30 Sudoeste 0 1009.4 -1.3 85
2019-11-30 12:00:00 18 19 Sudoeste 30 Sudoeste 0 1010.2 -0.5 78
2019-11-30 11:00:00 17.1 18 Sudoeste 28 Sudoeste 0 1010.7 0.2 80
2019-11-30 10:00:00 16.2 13 Sur 21 Sudoeste 0 1010.7 0.3 88
2019-11-30 09:00:00 14.6 8 Sur 11 Sur 0 1010.7 0 95
2019-11-30 08:00:00 12.8 9 Sur 21 Sur 0 1010.5 -0.2 95
2019-11-30 07:00:00 12.1 9 Sudeste 13 Sudeste 0 1010.4 -0.4 93
2019-11-30 06:00:00 12.3 11 Sudeste 13 Sudeste 0 1010.7 -0.2 92
2019-11-30 05:00:00 12.3 9 Sudeste 13 Sudeste 0 1010.7 -0.2 91
2019-11-30 04:00:00 12.3 9 Sudeste 13 Sudeste 0 1010.8 -0.3 91
2019-11-30 03:00:00 11.9 11 Sudeste 13 Sudeste 0 1010.9 -0.4 91
2019-11-30 02:00:00 11.2 9 Sudeste 13 Sudeste 0 1010.9 -0.4 91
2019-11-30 01:00:00 11.3 10 Este 15 Sudeste 0 1011.1 -0.1 90
2019-11-30 00:00:00 11.1 12 Sudeste 15 Sudeste 0 1011.3 0.3 90
2019-11-29 23:00:00 11.3 13 Este -- -- 0 1011.3 0.5 89
2019-11-29 22:00:00 11.5 12 Nordeste 18 Nordeste 0 1011.2 0.9 88
2019-11-29 21:00:00 11.9 14 Nordeste 18 Nordeste 0 1011 1.2 87
2019-11-29 20:00:00 11.9 11 Nordeste 17 Nordeste 0 1010.8 1.7 88
2019-11-29 19:00:00 13.2 12 Nordeste 18 Nordeste 0 1010.3 1.6 84
2019-11-29 18:00:00 13.8 14 Nordeste 21 Norte 0 1009.8 1.3 82
2019-11-29 17:00:00 15.1 12 Nordeste 24 Nordeste 0 1009.1 0.8 74
2019-11-29 16:00:00 16.9 13 Nordeste 24 Nordeste 0 1008.7 0.2 67
2019-11-29 15:00:00 17.1 17 Norte 33 Norte 0 1008.5 0.2 73
2019-11-29 14:00:00 19.7 10 Noroeste 22 Noroeste 0 1008.3 -0.1 61
2019-11-29 13:00:00 19.1 13 Oeste 22 Oeste 0 1008.5 1.2 67
2019-11-29 12:00:00 19.5 14 Oeste 28 Oeste 0 1008.3 1.7 66
2019-11-29 11:00:00 18.3 14 Oeste 28 Oeste 0 1008.4 2.8 65
2019-11-29 10:00:00 16.6 8 Oeste 15 Oeste 0 1007.3 2.2 77
2019-11-29 09:00:00 14.9 10 Oeste 17 Oeste 0 1006.6 2 86
2019-11-29 08:00:00 13.9 11 Oeste 15 Oeste 0 1005.6 1.1 89
2019-11-29 07:00:00 13.7 12 Oeste 17 Oeste 0 1005.1 0.6 86
2019-11-29 06:00:00 13.7 13 Oeste 24 Oeste 0 1004.6 0.5 83
2019-11-29 05:00:00 14.2 14 Sudoeste 33 Oeste 0 1004.5 -0.2 83
2019-11-29 04:00:00 14.5 22 Oeste 37 Sudoeste 0 1004.5 -0.4 81
2019-11-29 03:00:00 14.8 24 Sudoeste 37 Sudoeste 0 1004.1 -1.3 85
2019-11-29 02:00:00 14.9 23 Sudoeste 39 Oeste 0 1004.7 -0.7 86
2019-11-29 01:00:00 14.6 21 Oeste 37 Sudoeste 0 1004.9 -0.5 86
2019-11-29 00:00:00 14.7 18 Sudoeste 32 Oeste 0 1005.4 0 89
2019-11-28 23:00:00 14.6 19 Sudoeste 37 Oeste 0 1005.4 0.1 86
2019-11-28 22:00:00 14.6 19 Sudoeste 30 Sudoeste 0 1005.4 0.3 84
2019-11-28 21:00:00 14.6 16 Sudoeste 28 Sudoeste 0 1005.4 0.5 87
2019-11-28 20:00:00 14.8 15 Sudoeste 24 Sudoeste 0 1005.3 0.8 82
2019-11-28 19:00:00 15.3 19 Oeste 32 Sudoeste 0 1005.1 1 79
2019-11-28 18:00:00 15.5 15 Sudoeste 26 Sudoeste 0 1004.9 0.6 80
2019-11-28 17:00:00 16.1 11 Sudoeste 30 Oeste 0 1004.5 0.2 83
2019-11-28 16:00:00 17.7 17 Sudoeste 26 Sudoeste 0 1004.1 -0.4 77
2019-11-28 15:00:00 19.1 14 Sudoeste 28 Oeste 0 1004.3 -0.3 63
2019-11-28 14:00:00 19.1 14 Oeste 33 Oeste 0 1004.3 -0.3 54
2019-11-28 13:00:00 18.8 18 Oeste 39 Oeste 0 1004.5 0.7 57
2019-11-28 12:00:00 18.7 21 Oeste 39 Oeste 0 1004.6 1.5 56
2019-11-28 11:00:00 17.9 23 Oeste 37 Oeste 0 1004.6 2.3 62
2019-11-28 10:00:00 17.2 19 Oeste 37 Oeste 0 1003.8 2.1 70
2019-11-28 09:00:00 15.6 15 Oeste 26 Oeste 0 1003.1 2.4 76
2019-11-28 08:00:00 11.2 12 Oeste 15 Oeste 0 1002.3 1.8 92
2019-11-28 07:00:00 11.9 12 Oeste 17 Oeste 0 1001.7 1.2 91
2019-11-28 06:00:00 12.1 10 Oeste 15 Oeste 0 1000.7 0.6 92
2019-11-28 05:00:00 13.6 12 Oeste 22 Oeste 0 1000.5 0.1 88
2019-11-28 04:00:00 14 16 Oeste 26 Oeste 0 1000.5 -0.3 85
2019-11-28 03:00:00 13.6 14 Sudoeste 22 Oeste 0 1000.1 -0.9 87
2019-11-28 02:00:00 12.9 10 Sudoeste 17 Oeste 0 1000.4 -0.8 89
2019-11-28 01:00:00 13.1 11 Oeste 21 Sudoeste 0 1000.8 -0.5 92
2019-11-28 00:00:00 12.6 14 Sudoeste 22 Sudoeste 0 1001 0.1 96
2019-11-27 23:00:00 10.9 6 Sur 13 Sur 0 1001.2 0.2 96
2019-11-27 22:00:00 9.6 8 Oeste 9 Sudoeste 0 1001.3 0.6 93
2019-11-27 21:00:00 10.3 -- -- -- -- 0 1000.9 0.5 90
2019-11-27 20:00:00 12.2 8 Oeste 11 Oeste 0 1001 1 86
2019-11-27 19:00:00 12.9 8 Oeste 13 Noroeste 0 1000.7 1.3 81
2019-11-27 18:00:00 14.4 7 Oeste 13 Oeste 0 1000.4 1.3 79
2019-11-27 17:00:00 16.3 5 Oeste 22 Noroeste 0 1000 0.7 69
2019-11-27 16:00:00 18 13 Noroeste 30 Oeste 0 999.4 0 62
2019-11-27 15:00:00 18.1 14 Noroeste 32 Noroeste 0 999.1 -0.2 61
2019-11-27 14:00:00 18.8 20 Oeste 33 Oeste 0 999.3 -0.3 68
2019-11-27 06:00:00 15.8 25 Sudoeste 41 Sudoeste 0 996.7 -0.7 95
2019-11-27 05:00:00 15.6 26 Sudoeste 41 Sudoeste 0 996.8 -1.2 94
2019-11-27 04:00:00 15.5 28 Sudoeste 50 Sudoeste 0 997 -1.6 94
2019-11-27 03:00:00 15.7 31 Sudoeste 46 Sudoeste 0 997.4 -2 93
2019-11-27 02:00:00 15.4 31 Sudoeste 46 Sudoeste 0 998 -1.8 93
2019-11-27 01:00:00 15.2 31 Sudoeste 46 Sudoeste 0 998.6 -1.4 93
2019-11-27 00:00:00 15.4 29 Sudoeste 46 Sudoeste 0 999.4 -1.2 92
2019-11-26 23:00:00 15.4 26 Sudoeste 39 Sudoeste 0 999.8 -1 93
2019-11-26 22:00:00 15.5 28 Sudoeste 42 Sudoeste 0 1000 -0.7 92
2019-11-26 21:00:00 15.4 27 Sudoeste 39 Sudoeste 0 1000.6 -0.1 88
2019-11-26 20:00:00 15.2 19 Sudoeste 33 Sudoeste 0 1000.8 -0.3 93
2019-11-26 19:00:00 15.5 24 Sudoeste 39 Sudoeste 0 1000.7 -0.2 91
2019-11-26 18:00:00 15.6 25 Sudoeste 41 Sudoeste 0 1000.7 -0.4 88
2019-11-26 17:00:00 16.3 21 Sudoeste 33 Sudoeste 0 1001.1 -0.8 84
2019-11-26 16:00:00 17.2 20 Sudoeste 30 Sudoeste 0 1000.9 -1.9 83
2019-11-26 15:00:00 17.3 20 Sudoeste 32 Sudoeste 0 1001.1 -2 84
2019-11-26 14:00:00 17.6 24 Sudoeste 35 Sudoeste 0 1001.9 -1.8 82
2019-11-26 13:00:00 17.6 23 Sudoeste 33 Sudoeste 0 1002.8 -1.2 82
2019-11-26 12:00:00 17.7 25 Sudoeste 33 Sudoeste 0 1003.1 -0.6 77
2019-11-26 11:00:00 17.9 17 Sur 28 Sur 0 1003.7 0.2 73
2019-11-26 10:00:00 16.6 16 Sudoeste 22 Sudoeste 0 1004 0.7 79
2019-11-26 09:00:00 14.9 13 Sudoeste 18 Sudoeste 0 1003.7 0.7 94
2019-11-26 08:00:00 8.8 9 Sudoeste -- -- 0 1003.5 0.5 97
2019-11-26 07:00:00 -- -- -- -- -- 0 1003.3 0.1 --
2019-11-26 06:00:00 -- 8 Sudoeste 9 Sudoeste 0 1003 -0.6 --
2019-11-26 05:00:00 8 -- -- -- -- 0 1003 -0.9 96
2019-11-26 04:00:00 -- -- -- -- -- 0 1003.2 -1 --
2019-11-26 03:00:00 10.3 11 Oeste 13 Oeste 0 1003.6 -0.7 95
2019-11-26 02:00:00 10.2 9 Noroeste 11 Noroeste 0 1003.9 -0.3 94
2019-11-26 01:00:00 11.4 8 Noroeste 13 Noroeste 0 1004.2 0.1 93
2019-11-26 00:00:00 11.2 8 Noroeste 13 Noroeste 0 1004.3 0.6 91
2019-11-25 23:00:00 11.6 11 Noroeste 17 Noroeste 0 1004.2 0.9 89
2019-11-25 22:00:00 11.5 8 Noroeste 15 Noroeste 0 1004.1 1.6 91
2019-11-25 21:00:00 11.3 9 Oeste 13 Oeste 0 1003.7 1.7 92
2019-11-25 20:00:00 11.9 8 Noroeste 18 Noroeste 0 1003.3 1.9 90
2019-11-25 19:00:00 12.4 10 Noroeste 21 Noroeste 0 1002.5 1.5 89
2019-11-25 18:00:00 12.8 10 Noroeste 18 Noroeste 0 1002 1.5 85
2019-11-25 17:00:00 15 9 Noroeste 26 Noroeste 0 1001.4 1.3 74
2019-11-25 16:00:00 17.1 13 Noroeste 28 Noroeste 0 1001 0.6 60
2019-11-25 15:00:00 17.4 19 Oeste 30 Oeste 0 1000.5 -0.4 65
2019-11-25 14:00:00 17.9 17 Oeste 41 Oeste 0 1000.1 -1.2 57
2019-11-25 13:00:00 17.2 24 Oeste 46 Oeste 0 1000.4 -0.6 57
2019-11-25 12:00:00 17.3 21 Oeste 39 Oeste 0 1000.9 0.2 62
2019-11-25 11:00:00 16.3 21 Oeste 39 Oeste 0 1001.3 1 63
2019-11-25 10:00:00 15.5 17 Oeste 30 Noroeste 0 1001 0.6 69
2019-11-25 09:00:00 13.9 16 Oeste 35 Oeste 0 1000.7 0.9 73
2019-11-25 08:00:00 11.3 14 Oeste 28 Oeste 0 1000.3 0.6 84
2019-11-25 07:00:00 9.3 8 Noroeste 18 Noroeste 0 1000.4 0.2 86
2019-11-25 06:00:00 9.2 8 Noroeste 13 Oeste 0 999.8 -0.5 89
2019-11-25 05:00:00 10 4 Noroeste 15 Noroeste 0 999.7 -0.8 86
2019-11-25 04:00:00 10.2 7 Noroeste 15 Oeste 0 1000.2 -0.4 89
2019-11-25 03:00:00 10.3 11 Oeste 17 Noroeste 0 1000.3 -0.4 88
2019-11-25 02:00:00 10.2 11 Noroeste 17 Oeste 0 1000.5 0 89
2019-11-25 01:00:00 9.5 12 Oeste 15 Oeste 0 1000.6 -0.1 89
2019-11-25 00:00:00 9.9 11 Noroeste 17 Noroeste 0 1000.7 -0.2 86
2019-11-24 23:00:00 9.6 11 Oeste 15 Noroeste 0 1000.5 -0.4 87
2019-11-24 22:00:00 10.1 9 Noroeste 15 Noroeste 0 1000.7 0.2 86
2019-11-24 21:00:00 10.3 9 Noroeste 15 Oeste 0 1000.9 0.9 86
2019-11-24 20:00:00 10.8 11 Oeste 17 Noroeste 0 1000.9 1.5 83
2019-11-24 19:00:00 11.4 10 Oeste 17 Oeste 0 1000.5 1.8 82
2019-11-24 18:00:00 12.3 7 Noroeste 9 Noroeste 0 1000 1.9 84
2019-11-24 17:00:00 14.3 4 Noroeste 21 Nordeste 0 999.4 1.6 74
2019-11-24 16:00:00 16.5 12 Norte 21 Norte 0 998.7 1.1 64
2019-11-24 15:00:00 16 14 Norte 24 Norte 0 998.1 0.3 65
2019-11-24 14:00:00 16.5 18 Oeste 33 Oeste 0 997.8 -0.2 60
2019-11-24 13:00:00 15.8 22 Oeste 37 Noroeste 0 997.6 0.2 63
2019-11-24 12:00:00 16 18 Oeste 28 Oeste 0 997.8 1 63
2019-11-24 11:00:00 15.2 11 Noroeste 22 Noroeste 0 998 1.9 70
2019-11-24 10:00:00 14.3 12 Noroeste 21 Noroeste 0 997.4 2.1 77
2019-11-24 09:00:00 11.8 11 Oeste 17 Oeste 0 996.8 2.3 89
2019-11-24 08:00:00 10.7 6 Noroeste 15 Oeste 0 996.1 2.1 93
2019-11-24 07:00:00 10.7 6 Oeste 17 Noroeste 1 995.3 2 93
2019-11-24 06:00:00 10.8 7 Oeste 13 Oeste 0.2 994.5 1.9 94
2019-11-24 05:00:00 11.2 0 Calma 21 Noroeste 0.9 994 1.9 91
2019-11-24 04:00:00 11.3 14 Noroeste 26 Noroeste 0 993.3 1.7 84
2019-11-24 03:00:00 11.3 14 Noroeste 26 Noroeste 0 992.6 1.4 86
2019-11-24 02:00:00 11.8 12 Oeste 22 Oeste 0.1 992.1 1.5 91
2019-11-24 01:00:00 11.8 12 Oeste 24 Noroeste 0.8 991.6 2 94
2019-11-24 00:00:00 11.2 9 Oeste 13 Oeste 0.2 991.2 2.6 89
2019-11-23 23:00:00 11.6 9 Noroeste 24 Noroeste 0 990.6 2.7 86
2019-11-23 22:00:00 12.8 15 Oeste 35 Oeste 0 989.6 2.4 76
2019-11-23 21:00:00 12.7 21 Oeste 48 Oeste 0 988.6 2.5 71
2019-11-23 20:00:00 13.1 29 Oeste 50 Oeste 0 987.9 2.9 70
2019-11-23 19:00:00 12.4 21 Oeste 42 Oeste 0 987.2 3 77
2019-11-23 18:00:00 12 21 Oeste 41 Oeste 0 986.1 2.5 83
2019-11-23 17:00:00 12.3 12 Oeste 32 Oeste 0 985 2.1 88
2019-11-23 16:00:00 11.9 19 Oeste 32 Sudoeste 0.9 984.2 0.5 89
2019-11-23 15:00:00 11.3 2 Oeste 54 Oeste 9.5 983.6 -0.2 95
2019-11-23 14:00:00 15.9 24 Sudoeste 37 Sudoeste 0 982.9 -1.5 66
2019-11-23 13:00:00 14.1 25 Sudoeste 42 Sudoeste 0 983.7 0.4 74
2019-11-23 12:00:00 14.5 18 Oeste 32 Oeste 0.4 983.8 0.5 81
2019-11-23 11:00:00 14.7 32 Sudoeste 55 Sur 1 984.4 1.1 77
2019-11-23 10:00:00 18 17 Sudoeste 37 Sudoeste 0 983.3 0.3 75
2019-11-23 09:00:00 15.8 21 Sudoeste 35 Sudoeste 0 983.3 0.6 78
2019-11-23 08:00:00 15.2 22 Sudoeste 37 Sudoeste 0 983.3 0.4 83
2019-11-23 07:00:00 15.6 26 Sudoeste 48 Sudoeste 0 983 -0.4 90
2019-11-23 06:00:00 16.1 31 Sudoeste 54 Sudoeste 0.1 982.7 -1.3 94
2019-11-23 05:00:00 15.9 35 Sudoeste 58 Sur 0 982.9 -2.4 95
2019-11-23 04:00:00 16 39 Sudoeste 71 Sur 0.5 983.4 -3.4 94
2019-11-23 03:00:00 15.2 33 Sudoeste 68 Sur 12.7 984 -4.5 98
2019-11-23 02:00:00 14.6 36 Sur 55 Sur 3.4 985.3 -4.3 97
2019-11-23 01:00:00 14.3 32 Sur 58 Sur 2.6 986.8 -4.2 95
2019-11-23 00:00:00 14.6 39 Sur 58 Sur 4.5 988.5 -3.2 96
2019-11-22 23:00:00 15 33 Sur 55 Sur 0.5 989.6 -2.5 89
2019-11-22 22:00:00 15.5 31 Sur 52 Sur 0 991 -1.5 82
2019-11-22 21:00:00 16 28 Sur 48 Sur 0 991.7 -0.9 82
2019-11-22 20:00:00 16 30 Sur 45 Sur 0 992.1 -0.7 81
2019-11-22 19:00:00 15.9 28 Sur 42 Sur 0 992.5 -0.8 84
2019-11-22 18:00:00 15.7 28 Sur 46 Sudoeste 0 992.6 -1.1 83
2019-11-22 17:00:00 15.8 29 Sudoeste 45 Sur 0 992.8 -1.8 85
2019-11-22 16:00:00 16.2 33 Sur 46 Sur 0 993.3 -2.2 82
2019-11-22 15:00:00 16.8 29 Sudoeste 46 Sudoeste 0 993.7 -2.9 80
2019-11-22 14:00:00 17.1 30 Sur 46 Sur 0 994.6 -3.1 80
2019-11-22 13:00:00 16.2 23 Sur 37 Sur 0 995.5 -2.3 83
2019-11-22 12:00:00 14.6 5 Oeste 26 Sudoeste 1.6 996.6 -1 92
2019-11-22 11:00:00 14.3 10 Sur 18 Sur 1.9 997.7 0.2 94
2019-11-22 10:00:00 13.8 12 Sudoeste 24 Sur 0 997.8 0.1 93
2019-11-22 09:00:00 13.3 8 Sudeste 17 Sudeste 1.3 997.6 0 95
2019-11-22 08:00:00 12.6 12 Sur 26 Sur 3.9 997.5 -0.8 95
2019-11-22 07:00:00 13.5 19 Sur 30 Sur 0.4 997.7 -0.8 93
2019-11-22 06:00:00 13.6 15 Sur 24 Sur 0.5 997.6 -1.3 94
2019-11-22 05:00:00 13.4 15 Sudoeste 30 Sudoeste 0.4 998.3 -0.9 90
2019-11-22 04:00:00 13.4 12 Sur 18 Sur 0 998.5 -1 91
2019-11-22 03:00:00 12.5 10 Sur 15 Sur 0 998.9 -0.8 92
2019-11-22 02:00:00 10.8 9 Sudoeste -- -- -- 999.2 -0.7 92
2019-11-22 01:00:00 10.8 5 Sudoeste 8 Sudoeste 0 999.5 -0.7 90
2019-11-22 00:00:00 11.7 5 Sudoeste 13 Sudoeste 0 999.7 -0.3 86
2019-11-21 23:00:00 12.4 10 Sudoeste 18 Oeste 0 999.9 0.2 81
2019-11-21 22:00:00 12.8 13 Oeste 24 Oeste 0 1000.2 0.8 78
2019-11-21 21:00:00 13.1 15 Sudoeste 30 Sudoeste 0 1000 1.1 74
2019-11-21 20:00:00 13.5 17 Sudoeste 26 Oeste 0 999.7 1.2 68
2019-11-21 19:00:00 13.5 15 Oeste 26 Oeste 0 999.4 1.2 73
2019-11-21 18:00:00 13.9 17 Oeste 28 Oeste 0 998.9 0.8 69
2019-11-21 17:00:00 14.3 17 Sudoeste 33 Sudoeste 0 998.5 0.2 70
2019-11-21 16:00:00 15.3 24 Sudoeste 39 Sudoeste 0 998.2 -0.4 67
2019-11-21 15:00:00 16.6 28 Sudoeste 41 Sudoeste 0 998.1 -1 61
2019-11-21 14:00:00 16.2 23 Sudoeste 35 Sudoeste 0 998.3 -1.2 63
2019-11-21 13:00:00 16.3 22 Sudoeste 33 Sudoeste 0 998.6 -0.6 66
2019-11-21 12:00:00 16.2 18 Sudoeste 32 Oeste 0 999.1 0.1 66
2019-11-21 11:00:00 15.6 20 Sudoeste 32 Sudoeste 0 999.5 0.8 68
2019-11-21 10:00:00 14.7 18 Sudoeste 30 Oeste 0 999.2 0.7 71
2019-11-21 09:00:00 13.4 17 Sudoeste 30 Sudoeste 0 999 0.4 82
2019-11-21 08:00:00 10.8 12 Sudoeste 17 Sudoeste 0 998.7 -0.3 90
2019-11-21 07:00:00 10.6 10 Oeste 26 Sudoeste 1.6 998.5 0.1 92
2019-11-21 06:00:00 10.7 13 Sur 26 Sudoeste 2.7 998.6 -0.3 94
2019-11-21 05:00:00 12 20 Sudoeste 32 Sudoeste 1 999 -0.3 88
2019-11-21 04:00:00 11.8 10 Sudoeste 17 Sudoeste 0 998.4 -1.4 84
2019-11-21 03:00:00 10.8 9 Sudoeste 21 Oeste 0 998.9 -1.3 89
2019-11-21 02:00:00 10.6 9 Oeste -- -- -- 999.3 -1.3 94
2019-11-21 01:00:00 10.5 3 Sur 5 Sur 0 999.8 -1 94
2019-11-21 00:00:00 11.3 6 Sur 15 Sudoeste 0.3 1000.2 -1 91
2019-11-20 23:00:00 11 12 Sur 32 Sudoeste 0.9 1000.6 -0.6 90
2019-11-20 22:00:00 11.3 9 Sur 24 Sur 0 1000.8 -0.3 88
2019-11-20 21:00:00 11.5 20 Sur 35 Sur 0.3 1001.2 -0.3 86
2019-11-20 20:00:00 11.2 14 Sudeste 17 Sudeste 0 1001.2 -0.3 92
2019-11-20 19:00:00 11.2 12 Sudeste 21 Sur 0.2 1001.1 -0.3 92
2019-11-20 18:00:00 11.8 20 Sur 32 Sur 0.2 1001.5 0 85
2019-11-20 17:00:00 12.6 16 Sur 32 Sur 0 1001.5 -0.6 83
2019-11-20 16:00:00 13.9 10 Sur 17 Sudoeste 0 1001.4 -1.3 66
2019-11-20 15:00:00 14.1 10 Sudoeste 18 Sudoeste 0 1001.5 -1.8 60
2019-11-20 14:00:00 14.4 13 Sur 17 Sur 0 1002.1 -1.8 64
2019-11-20 13:00:00 14.1 8 Sur 15 Sudoeste 0 1002.7 -1.4 64
2019-11-20 12:00:00 14.9 8 Sur 18 Sudoeste 0 1003.3 -0.7 61
2019-11-20 11:00:00 14.4 9 Sudoeste 13 Sudoeste 0 1003.9 0.1 62
2019-11-20 10:00:00 14.6 6 Sudoeste 11 Sudoeste 0 1004.1 0.4 63
2019-11-20 09:00:00 10.3 7 Sudeste -- -- 0 1004 0.1 77
2019-11-20 08:00:00 7.3 9 Sudeste 17 Este 0 1003.8 -0.4 86
2019-11-20 07:00:00 -- 9 Este -- -- 0 1003.7 -0.6 --
2019-11-20 06:00:00 5.2 7 Este -- -- 0 1003.9 -0.9 91
2019-11-20 05:00:00 5 0 Calma -- -- 0 1004.2 -0.7 92
2019-11-20 04:00:00 5.6 5 Nordeste -- -- 0 1004.3 -1 89
2019-11-20 03:00:00 6.3 4 Norte -- -- 0 1004.8 -1 91
2019-11-20 02:00:00 5.9 5 Norte -- -- -- 1004.9 -0.9 91
2019-11-20 01:00:00 6.6 -- -- -- -- 0 1005.3 -0.6 88
2019-11-20 00:00:00 7.3 -- -- -- -- 0 1005.8 -0.1 89
2019-11-19 23:00:00 6.8 10 Norte 11 Norte 0 1005.8 0.1 88
2019-11-19 22:00:00 8.8 -- -- -- -- 0 1005.9 0.2 85
2019-11-19 21:00:00 -- -- -- -- -- 0 1005.9 0.6 --
2019-11-19 20:00:00 7.4 12 Norte 15 Norte 0 1005.7 0.5 88
2019-11-19 19:00:00 8.8 13 Norte 15 Norte 0 1005.7 0.5 84
2019-11-19 18:00:00 9.1 12 Norte 13 Norte 0 1005.3 0.3 84
2019-11-19 17:00:00 11.8 5 Noroeste 21 Noroeste 0 1005.2 0.2 65
2019-11-19 16:00:00 13.8 11 Noroeste 26 Oeste 0 1005.2 -0.1 61
2019-11-19 15:00:00 14.8 19 Oeste 30 Oeste 0 1005 -0.8 58
2019-11-19 14:00:00 14.1 18 Oeste 32 Oeste 0 1005 -1.3 60
2019-11-19 13:00:00 15 18 Oeste 28 Oeste 0 1005.3 -0.6 56
2019-11-19 12:00:00 13.9 14 Sudoeste 24 Sudoeste 0 1005.8 0.2 62
2019-11-19 11:00:00 12.8 12 Noroeste 24 Sudoeste 0 1006.3 1.1 65
2019-11-19 10:00:00 13.2 6 Norte 9 Norte 0 1005.9 1.3 63
2019-11-19 09:00:00 10.6 5 Norte 18 Norte 0 1005.6 1.5 74
2019-11-19 08:00:00 7.9 9 Norte 18 Norte 0 1005.2 1.5 81
2019-11-19 07:00:00 6.6 17 Norte 22 Norte 0 1004.6 1 84
2019-11-19 06:00:00 8.1 9 Noroeste 21 Norte 0 1004.1 0.5 72
2019-11-19 05:00:00 8.7 13 Norte 24 Norte 0 1003.7 0.6 75
2019-11-19 04:00:00 9.2 14 Norte 26 Norte 0 1003.6 0.8 74
2019-11-19 03:00:00 9.4 14 Norte 35 Norte 0 1003.6 0.9 74
2019-11-19 02:00:00 10.2 22 Norte -- -- -- 1003.1 0.8 71
2019-11-19 01:00:00 10.3 24 Norte 42 Norte 0 1002.8 1.1 74
2019-11-19 00:00:00 10.6 27 Norte 42 Norte 0 1002.7 1.8 76
2019-11-18 23:00:00 10.6 25 Norte 46 Norte 0 1002.3 2.2 78
2019-11-18 22:00:00 10.7 26 Norte 46 Norte 0 1001.7 2.2 80
2019-11-18 21:00:00 10.6 27 Norte 48 Norte 0.1 1000.9 2.4 86
2019-11-18 20:00:00 10.1 28 Norte 48 Norte 1 1000.1 2.5 92
2019-11-18 19:00:00 10.8 31 Norte 50 Norte 0 999.5 2.1 78
2019-11-18 18:00:00 10.3 32 Norte 48 Norte 0 998.5 2.2 86
2019-11-18 17:00:00 10.1 34 Norte 54 Norte 2.3 997.6 1.7 97
2019-11-18 16:00:00 9.9 19 Norte 54 Norte 5.4 997.4 1.4 99
2019-11-18 15:00:00 12.4 29 Norte 42 Norte 0 996.3 -0.2 79
2019-11-18 14:00:00 12.6 28 Norte 41 Norte 0 995.9 -0.3 79
2019-11-18 13:00:00 13.2 27 Norte 37 Norte 0 996 -0.6 77
2019-11-18 12:00:00 12.9 15 Norte 32 Nordeste 0 996.5 0 83
2019-11-18 11:00:00 11.7 21 Norte 35 Norte 0 996.2 0.8 88
2019-11-18 10:00:00 11.4 18 Norte 26 Norte 1.5 996.6 0.7 92
2019-11-18 09:00:00 11.1 13 Norte 21 Norte 0.1 996.5 0.5 94
2019-11-18 08:00:00 11.4 8 Norte 13 Norte 0 995.4 -0.5 95
2019-11-18 07:00:00 11.3 2 Sudoeste 8 Noroeste 0 995.9 -0.6 95
2019-11-18 06:00:00 11.5 4 Noroeste 13 Noroeste 0.3 996 -0.7 95
2019-11-18 05:00:00 12 9 Noroeste 18 Oeste 2.6 995.9 -1.5 94
2019-11-18 04:00:00 12.7 13 Oeste 28 Sudoeste 0.2 996.5 -1.9 85
2019-11-18 03:00:00 15 17 Sudoeste 28 Sudoeste 0 996.7 -2 68
2019-11-18 02:00:00 14.9 20 Sudoeste -- -- -- 997.4 -2.1 66
2019-11-18 01:00:00 14.2 19 Sudoeste 32 Sudoeste 0 998.4 -1.8 64
2019-11-18 00:00:00 13.8 18 Sudoeste 30 Sudoeste 0 998.7 -1.6 66
2019-11-17 23:00:00 13.8 19 Sudoeste 35 Sudoeste 0 999.5 -1 69
2019-11-17 22:00:00 13.8 23 Sudoeste 37 Sudoeste 0 1000.2 -0.1 62
2019-11-17 21:00:00 13.3 21 Oeste 33 Oeste 0 1000.3 0.2 67
2019-11-17 20:00:00 13 17 Oeste 32 Sudoeste 0 1000.5 0.6 60
2019-11-17 19:00:00 12.7 15 Oeste 32 Oeste 0 1000.3 0.5 63
2019-11-17 18:00:00 12.9 19 Oeste 35 Oeste 0 1000.1 0.6 59
2019-11-17 17:00:00 13.7 22 Oeste 35 Oeste 0 999.9 0.3 59
2019-11-17 16:00:00 15.1 19 Oeste 42 Oeste 0 999.8 0 49
2019-11-17 15:00:00 15.1 25 Oeste 39 Oeste 0 999.5 -0.7 46
2019-11-17 14:00:00 14.5 17 Oeste 41 Oeste 0 999.6 -1 54
2019-11-17 13:00:00 15.8 27 Oeste 45 Oeste 0 999.8 -0.5 49
2019-11-17 12:00:00 15.3 29 Sudoeste 42 Sudoeste 0 1000.2 0.1 50
2019-11-17 11:00:00 15 27 Oeste 42 Oeste 0 1000.6 0.6 56
2019-11-17 10:00:00 13.4 14 Oeste 32 Noroeste 0 1000.3 0.8 60
2019-11-17 09:00:00 12.1 12 Noroeste 22 Noroeste 0 1000.1 0.8 65
2019-11-17 08:00:00 9.1 11 Noroeste 24 Noroeste 0 1000 1.1 75
2019-11-17 07:00:00 9 11 Noroeste 22 Noroeste 0 999.5 0.8 75
2019-11-17 06:00:00 8.9 10 Noroeste 28 Noroeste 0 999.3 0.7 75
2019-11-17 05:00:00 9.3 15 Noroeste 26 Noroeste 0 998.9 0.3 71
2019-11-17 04:00:00 10.1 13 Noroeste 35 Oeste 0 998.7 0 70
2019-11-17 03:00:00 10.8 18 Noroeste 41 Noroeste 0 998.6 -0.5 67
2019-11-17 02:00:00 11.2 19 Noroeste -- -- -- 998.6 -0.8 65
2019-11-17 01:00:00 10.2 13 Noroeste 35 Noroeste 0 998.7 -1 68
2019-11-17 00:00:00 10.4 20 Noroeste 35 Oeste 0 999.1 0 69
2019-11-16 23:00:00 9.4 16 Noroeste 33 Noroeste 0 999.4 0.2 73
2019-11-16 22:00:00 9.8 12 Noroeste 32 Norte 0 999.7 1 69
2019-11-16 21:00:00 10.8 20 Noroeste 33 Noroeste 0 999.1 1 61
2019-11-16 20:00:00 11.1 15 Noroeste 30 Norte 0 999.2 1.7 64
2019-11-16 19:00:00 11.2 17 Norte 30 Norte 0 998.7 1.1 67
2019-11-16 18:00:00 11 14 Norte 37 Norte 0 998.1 0.4 80
2019-11-16 17:00:00 11.3 19 Norte 33 Norte 0 997.5 -0.2 76
2019-11-16 16:00:00 11.6 26 Norte 39 Norte 0 997.6 -0.7 77
2019-11-16 15:00:00 12.4 28 Norte 39 Norte 0 997.7 -1 75
2019-11-16 14:00:00 13 12 Nordeste 22 Nordeste 0 997.7 -1.5 70
2019-11-16 13:00:00 12.9 13 Nordeste 28 Nordeste 0 998.3 -0.3 72
2019-11-16 12:00:00 12.4 16 Norte 22 Norte 0 998.7 0.2 76
2019-11-16 11:00:00 12.2 9 Norte 18 Nordeste 0 999.2 0.8 77
2019-11-16 10:00:00 10.8 14 Norte 26 Nordeste 0 998.6 0.4 85
2019-11-16 09:00:00 9.4 15 Norte 17 Norte 0 998.5 0.9 86
2019-11-16 08:00:00 8.6 10 Norte 15 Norte 0 998.4 1.8 88
2019-11-16 07:00:00 8.7 10 Norte 18 Nordeste 0.2 998.2 1.5 90
2019-11-16 06:00:00 9.1 12 Norte 28 Noroeste 1.2 997.6 0.9 87
2019-11-16 05:00:00 9.1 15 Noroeste 30 Noroeste 0 996.6 0.2 81
2019-11-16 04:00:00 6.6 8 Noroeste 11 Noroeste 0 996.7 0.6 85
2019-11-16 03:00:00 6.8 7 Noroeste 11 Noroeste 0 996.7 0.8 79
2019-11-16 02:00:00 8.6 11 Noroeste -- -- -- 996.4 0.7 72
2019-11-16 01:00:00 10.4 8 Oeste 22 Oeste 0 996.1 0.8 68
2019-11-16 00:00:00 11.3 17 Oeste 30 Oeste 0 995.9 1.2 65
2019-11-15 23:00:00 11.1 16 Oeste 30 Oeste 0 995.7 1.7 65
2019-11-15 22:00:00 10.6 12 Oeste 30 Oeste 0 995.3 1.8 65
2019-11-15 21:00:00 11 16 Sudoeste 33 Sudoeste 0 994.7 1.7 64
2019-11-15 20:00:00 11.3 20 Oeste 30 Sudoeste 0 994 1.8 59
2019-11-15 19:00:00 10.3 7 Noroeste 17 Oeste 0 993.5 1.6 69
2019-11-15 18:00:00 11.5 14 Oeste 24 Oeste 0 993 1.7 63
2019-11-15 17:00:00 13 12 Oeste 22 Oeste 0 992.2 1.4 63
2019-11-15 16:00:00 12.6 15 Oeste 35 Oeste 0 991.9 1.2 64
2019-11-15 15:00:00 12.8 18 Oeste 33 Oeste 0 991.3 0.6 63
2019-11-15 14:00:00 13.1 23 Oeste 42 Oeste 0 990.8 -0.1 62
2019-11-15 13:00:00 12.8 25 Oeste 45 Oeste 0 990.7 0.5 63
2019-11-15 12:00:00 12.8 27 Oeste 42 Oeste 0 990.7 0.7 67
2019-11-15 11:00:00 13.2 20 Oeste 42 Oeste 0 990.9 0.8 68
2019-11-15 10:00:00 13 29 Oeste 45 Sudoeste 0 990.2 0.4 62
2019-11-15 09:00:00 12.4 25 Oeste 42 Oeste 0 990 0.3 67
2019-11-15 08:00:00 8.8 8 Noroeste 21 Nordeste 0.5 990.1 0.1 89
2019-11-15 07:00:00 9.3 12 Norte 22 Norte 0 989.8 -0.3 84
2019-11-15 06:00:00 11.8 14 Sudoeste 28 Oeste 0 989.7 -0.8 71
2019-11-15 05:00:00 9.2 13 Sudoeste 21 Sudoeste 0 990 -0.7 76
2019-11-15 04:00:00 7.6 8 Sudoeste 13 Sudoeste 0 990.1 -0.3 86
2019-11-15 03:00:00 8.3 9 Sudoeste 13 Oeste 0 990.5 0.3 80
2019-11-15 02:00:00 7.8 4 Oeste 9 Oeste 0 990.7 0.5 87
2019-11-15 01:00:00 8.4 4 Noroeste 13 Oeste 0 990.4 0.3 83
2019-11-15 00:00:00 8.8 6 Noroeste 15 Noroeste 0 990.2 0.5 82
2019-11-14 23:00:00 9.8 10 Noroeste 22 Noroeste 0 990.2 1.2 79
2019-11-14 22:00:00 10.8 10 Oeste 33 Oeste 0 990.1 1.3 82
2019-11-14 21:00:00 11.3 19 Oeste 33 Oeste 0 989.7 1.6 82
2019-11-14 20:00:00 9.8 9 Oeste 22 Noroeste 0.2 989 1.3 91
2019-11-14 19:00:00 10.4 17 Noroeste 37 Oeste 1.6 988.8 1.1 91
2019-11-14 18:00:00 12.4 16 Oeste 30 Noroeste 0.7 988.1 0.6 88
2019-11-14 17:00:00 13.8 13 Oeste 41 Sudoeste 0.1 987.7 0 86
2019-11-14 16:00:00 13.8 27 Sudoeste 63 Oeste 2.2 987.7 -1.3 84
2019-11-14 15:00:00 17.1 36 Sudoeste 65 Sudoeste 0 987.5 -3 80
2019-11-14 14:00:00 17.4 41 Sudoeste 67 Sudoeste 0 987.7 -4.4 80
2019-11-14 13:00:00 17.4 42 Sudoeste 65 Sur 0 989 -4.3 80
2019-11-14 12:00:00 17.7 40 Sudoeste 61 Sudoeste 0 990.5 -3.7 80
2019-11-14 11:00:00 17.5 37 Sur 55 Sur 0 992.1 -2.4 82
2019-11-14 10:00:00 16.3 32 Sur 46 Sur 0 993.3 -1.8 81
2019-11-14 09:00:00 15.8 30 Sur 46 Sur 0 994.2 -1.2 75
2019-11-14 08:00:00 15.1 30 Sudoeste 42 Sudoeste 0 994.5 -2 75
2019-11-14 07:00:00 14.7 26 Sudoeste 41 Sudoeste 0 995.1 -2.4 77
2019-11-14 06:00:00 14 25 Sudoeste 41 Sur 0 995.4 -3 79
2019-11-14 05:00:00 13.9 25 Sudoeste 41 Sudoeste 0 996.5 -2.4 81
2019-11-14 04:00:00 13 17 Sudoeste 32 Sudoeste 0 997.5 -1.9 83
2019-11-14 03:00:00 12.4 17 Sudoeste 28 Sudoeste 0 998.4 -1.1 86
2019-11-14 02:00:00 8.6 12 Sudoeste 15 Sudoeste 0 998.9 -1.5 96
2019-11-14 01:00:00 7.3 0 Calma -- -- 0 999.4 -0.9 94
2019-11-14 00:00:00 9 4 Sudoeste 13 Noroeste 0 999.5 -0.6 93
2019-11-13 23:00:00 9.6 9 Noroeste 11 Noroeste 0 1000.4 0.7 91
2019-11-13 22:00:00 10.3 11 Noroeste 13 Noroeste 0 1000.3 1.6 92
2019-11-13 21:00:00 11 7 Noroeste 11 Noroeste 0 1000.1 2.3 92
2019-11-13 20:00:00 11.1 9 Noroeste 17 Norte 0 999.7 2.6 93
2019-11-13 19:00:00 11 8 Noroeste 11 Norte 0 998.7 2.2 95
2019-11-13 18:00:00 11.2 9 Norte 21 Norte 0.1 997.8 2.1 94
2019-11-13 17:00:00 11.6 18 Norte 30 Norte 0 997.1 1.3 93
2019-11-13 16:00:00 11.8 19 Norte 35 Norte 0.5 996.5 0.7 92
2019-11-13 15:00:00 11.7 19 Norte 32 Norte 0.5 995.7 -0.2 92
2019-11-13 14:00:00 12.3 14 Norte 21 Norte 0.9 995.8 0 93
2019-11-13 13:00:00 12.4 4 Norte 9 Noroeste 2.9 995.8 0.3 92
2019-11-13 12:00:00 13 6 Norte 9 Norte 1.1 995.9 0.5 87
2019-11-13 11:00:00 14 0 Calma -- -- 0.1 995.8 0.5 79
2019-11-13 10:00:00 13.4 0 Calma 11 Oeste 0 995.5 0.5 79
2019-11-13 09:00:00 12.2 4 Sudoeste 8 Noroeste 0 995.4 0.7 82
2019-11-13 08:00:00 11.8 8 Noroeste 13 Noroeste 0 995.3 0.4 78
2019-11-13 07:00:00 11.3 4 Oeste 15 Noroeste 0 995 0.2 77
2019-11-13 06:00:00 12.1 8 Noroeste 21 Noroeste 0 994.7 -0.9 75
2019-11-13 05:00:00 11.8 10 Noroeste 18 Oeste 0 994.9 -0.9 75
2019-11-13 04:00:00 12.6 8 Oeste 33 Oeste 0 994.8 -1.5 72
2019-11-13 03:00:00 13.3 17 Oeste 39 Oeste 0 995.6 -0.9 72
2019-11-13 02:00:00 12.3 13 Oeste 24 Noroeste 0 995.8 -1 73
2019-11-13 01:00:00 11.3 10 Oeste 21 Noroeste 0 996.3 -0.6 77
2019-11-13 00:00:00 11 12 Oeste 17 Oeste 0 996.5 -0.1 77
2019-11-12 23:00:00 10.2 8 Noroeste 13 Noroeste 0 996.8 0.1 80
2019-11-12 22:00:00 10.5 8 Noroeste 17 Noroeste 0 996.9 0 76
2019-11-12 21:00:00 10.6 10 Noroeste 18 Noroeste 0 996.6 -0.4 73
2019-11-12 20:00:00 11.2 14 Noroeste 24 Noroeste 0 996.7 0 69
2019-11-12 19:00:00 10.9 12 Noroeste 22 Noroeste 0 996.9 0.4 70
2019-11-12 18:00:00 11.8 8 Noroeste 26 Noroeste 0 997 0.4 72
2019-11-12 17:00:00 13.6 16 Noroeste 32 Noroeste 0 996.7 0 66
2019-11-12 16:00:00 15 19 Oeste 39 Noroeste 0 996.5 -0.4 55
2019-11-12 15:00:00 15.3 22 Noroeste 48 Noroeste 0 996.6 -0.7 53
2019-11-12 14:00:00 15.2 23 Noroeste 63 Norte 0 996.7 -1.4 55
2019-11-12 13:00:00 14.6 37 Noroeste 67 Noroeste 0 996.9 -1.6 54
2019-11-12 12:00:00 14.4 43 Norte 71 Norte 0 997.3 -1.7 57
2019-11-12 11:00:00 14.3 37 Norte 61 Norte 0 998.1 -0.5 58
2019-11-12 10:00:00 13.7 36 Norte 67 Norte 0 998.5 1.2 60
2019-11-12 09:00:00 12.4 39 Norte 74 Norte 0 999 2.1 57
2019-11-12 08:00:00 12 40 Norte 72 Norte 0 998.6 1.6 60
2019-11-12 07:00:00 11.9 48 Norte 76 Norte 0 997.3 -0.2 53
2019-11-12 06:00:00 12 48 Norte 74 Norte 0 996.9 -1.1 55
2019-11-12 05:00:00 12.1 41 Norte 87 Norte 0 997 -1 54
2019-11-12 04:00:00 12.8 49 Norte 74 Norte 0 997.5 -0.6 47
2019-11-12 03:00:00 13.2 46 Norte 87 Norte 0 998 -0.3 57
2019-11-12 02:00:00 13.3 48 Norte 85 Norte 0 998 -0.2 53
2019-11-12 01:00:00 13.4 50 Norte 82 Norte 0 998.1 -0.2 58
2019-11-12 00:00:00 13.8 49 Norte 74 Norte 0 998.3 0.3 68